AEE218 SANU-SGAS
Flight info
| Callsign | AEE218 |
|---|---|
| Flight time | N/A |
| Altitude | 37000 |
| Route | KIBUN DCT JUA UW24 CBA UL531 ERE UW14 BITUS UP526 SAMGU |
| Aircraft | A320/M-SDE3FGHIRWY/LB1 |
Departure
| Time | N/A |
|---|---|
| Airport | Domingo Faustino Sarmiento Airport (SANU) |
Arrival
| Time | 2026-04-24 20:25 |
|---|---|
| Airport | Silvio Pettirossi International Airport (SGAS) |
| Time | Latitude | Longitude | Altitude | Speed | Heading |
|---|---|---|---|---|---|
| 2026-04-24 18:54 | -31.43312 | -65.93430 | 33515 ft | 533 kts | 85° |
| 2026-04-24 18:55 | -31.42763 | -65.84719 | 34005 ft | 539 kts | 84° |
| 2026-04-24 18:55 | -31.42485 | -65.80331 | 34236 ft | 541 kts | 84° |
| 2026-04-24 18:55 | -31.42208 | -65.75968 | 34470 ft | 543 kts | 84° |
| 2026-04-24 18:56 | -31.41926 | -65.71550 | 34709 ft | 544 kts | 84° |
| 2026-04-24 18:56 | -31.41642 | -65.67120 | 34942 ft | 546 kts | 84° |
| 2026-04-24 18:56 | -31.41355 | -65.62680 | 35169 ft | 547 kts | 84° |
| 2026-04-24 18:56 | -31.41067 | -65.58231 | 35359 ft | 549 kts | 84° |
| 2026-04-24 18:57 | -31.40777 | -65.53759 | 35527 ft | 552 kts | 84° |
| 2026-04-24 18:57 | -31.40487 | -65.49274 | 35740 ft | 554 kts | 84° |
| 2026-04-24 18:57 | -31.40191 | -65.44759 | 35971 ft | 555 kts | 84° |
| 2026-04-24 18:57 | -31.39891 | -65.40254 | 36194 ft | 556 kts | 84° |
| 2026-04-24 18:58 | -31.39588 | -65.35736 | 36448 ft | 557 kts | 84° |
| 2026-04-24 18:58 | -31.39287 | -65.31265 | 36650 ft | 558 kts | 83° |
| 2026-04-24 18:58 | -31.38979 | -65.26726 | 36809 ft | 560 kts | 83° |
| 2026-04-24 18:58 | -31.38670 | -65.22163 | 36997 ft | 562 kts | 83° |
| 2026-04-24 18:59 | -31.38360 | -65.17594 | 37063 ft | 566 kts | 83° |
| 2026-04-24 18:59 | -31.37717 | -65.08326 | 37067 ft | 575 kts | 83° |
| 2026-04-24 19:00 | -31.37065 | -64.98968 | 37069 ft | 577 kts | 83° |
| 2026-04-24 19:00 | -31.36409 | -64.89659 | 37065 ft | 579 kts | 83° |
| 2026-04-24 19:01 | -31.35745 | -64.80251 | 37064 ft | 580 kts | 83° |
| 2026-04-24 19:01 | -31.35071 | -64.70845 | 37055 ft | 580 kts | 83° |
| 2026-04-24 19:02 | -31.34503 | -64.63022 | 37066 ft | 580 kts | 83° |
| 2026-04-24 19:02 | -31.33821 | -64.53618 | 37048 ft | 580 kts | 83° |
| 2026-04-24 19:03 | -31.33125 | -64.44209 | 37039 ft | 581 kts | 83° |
| 2026-04-24 19:03 | -31.32420 | -64.34790 | 37026 ft | 581 kts | 83° |
| 2026-04-24 19:04 | -31.31416 | -64.25432 | 37029 ft | 576 kts | 72° |
| 2026-04-24 19:04 | -31.28703 | -64.16817 | 37028 ft | 560 kts | 53° |
| 2026-04-24 19:04 | -31.26709 | -64.12958 | 37027 ft | 549 kts | 44° |
| 2026-04-24 19:05 | -31.24476 | -64.09363 | 37024 ft | 546 kts | 44° |
| 2026-04-24 19:05 | -31.20007 | -64.02174 | 37010 ft | 548 kts | 43° |
| 2026-04-24 19:06 | -31.15532 | -63.94959 | 37012 ft | 548 kts | 43° |
| 2026-04-24 19:06 | -31.11049 | -63.87749 | 37018 ft | 549 kts | 43° |
| 2026-04-24 19:07 | -31.06544 | -63.80549 | 37036 ft | 549 kts | 43° |
| 2026-04-24 19:07 | -31.02066 | -63.73402 | 37017 ft | 549 kts | 43° |
| 2026-04-24 19:08 | -30.97554 | -63.66212 | 37022 ft | 550 kts | 43° |
| 2026-04-24 19:08 | -30.93029 | -63.59009 | 37037 ft | 550 kts | 43° |
| 2026-04-24 19:09 | -30.88518 | -63.51786 | 37042 ft | 552 kts | 43° |
| 2026-04-24 19:09 | -30.84105 | -63.44521 | 37052 ft | 553 kts | 44° |
| 2026-04-24 19:10 | -30.79675 | -63.37201 | 36995 ft | 553 kts | 43° |
| 2026-04-24 19:10 | -30.75224 | -63.29930 | 37056 ft | 552 kts | 42° |
| 2026-04-24 19:11 | -30.70686 | -63.22727 | 37066 ft | 550 kts | 41° |
| 2026-04-24 19:11 | -30.66141 | -63.15567 | 37064 ft | 550 kts | 41° |
| 2026-04-24 19:12 | -30.61626 | -63.08407 | 37051 ft | 550 kts | 42° |
| 2026-04-24 19:12 | -30.57149 | -63.01287 | 37061 ft | 549 kts | 42° |
| 2026-04-24 19:13 | -30.53374 | -62.95304 | 37065 ft | 548 kts | 41° |
| 2026-04-24 19:13 | -30.48132 | -62.87018 | 37064 ft | 548 kts | 41° |
| 2026-04-24 19:14 | -30.43622 | -62.79903 | 37048 ft | 548 kts | 41° |
| 2026-04-24 19:14 | -30.39105 | -62.72795 | 37010 ft | 546 kts | 42° |
| 2026-04-24 19:15 | -30.34603 | -62.65723 | 37066 ft | 545 kts | 42° |
| 2026-04-24 19:15 | -30.30104 | -62.58689 | 37069 ft | 543 kts | 42° |
| 2026-04-24 19:16 | -30.23392 | -62.48231 | 37057 ft | 541 kts | 42° |
| 2026-04-24 19:16 | -30.18906 | -62.41256 | 37068 ft | 540 kts | 41° |
| 2026-04-24 19:17 | -30.14420 | -62.34306 | 37064 ft | 539 kts | 41° |
| 2026-04-24 19:17 | -30.09943 | -62.27362 | 37062 ft | 538 kts | 41° |
| 2026-04-24 19:18 | -30.05460 | -62.20433 | 37041 ft | 538 kts | 41° |
| 2026-04-24 19:18 | -30.00984 | -62.13527 | 37018 ft | 537 kts | 41° |
| 2026-04-24 19:19 | -29.96534 | -62.06665 | 37057 ft | 535 kts | 41° |
| 2026-04-24 19:19 | -29.92074 | -61.99800 | 37064 ft | 534 kts | 41° |
| 2026-04-24 19:20 | -29.87807 | -61.92736 | 37065 ft | 547 kts | 52° |
| 2026-04-24 19:20 | -29.86226 | -61.88700 | 37048 ft | 560 kts | 63° |
| 2026-04-24 19:20 | -29.85006 | -61.84427 | 37054 ft | 562 kts | 65° |
| 2026-04-24 19:21 | -29.82589 | -61.75868 | 37058 ft | 561 kts | 64° |
| 2026-04-24 19:21 | -29.80141 | -61.67339 | 37058 ft | 561 kts | 64° |
| 2026-04-24 19:22 | -29.77676 | -61.58805 | 37054 ft | 561 kts | 64° |
| 2026-04-24 19:22 | -29.75214 | -61.50290 | 37055 ft | 561 kts | 64° |
| 2026-04-24 19:23 | -29.72757 | -61.41771 | 37057 ft | 561 kts | 64° |
| 2026-04-24 19:23 | -29.70298 | -61.33255 | 37040 ft | 561 kts | 64° |
| 2026-04-24 19:24 | -29.67852 | -61.24800 | 37053 ft | 561 kts | 64° |
| 2026-04-24 19:24 | -29.65373 | -61.16301 | 37059 ft | 560 kts | 64° |
| 2026-04-24 19:25 | -29.62883 | -61.07809 | 37060 ft | 560 kts | 64° |
| 2026-04-24 19:25 | -29.60394 | -60.99322 | 37056 ft | 560 kts | 64° |
| 2026-04-24 19:26 | -29.57906 | -60.90846 | 37058 ft | 560 kts | 64° |
| 2026-04-24 19:26 | -29.55402 | -60.82368 | 37061 ft | 560 kts | 64° |
| 2026-04-24 19:27 | -29.52878 | -60.73902 | 37041 ft | 560 kts | 63° |
| 2026-04-24 19:27 | -29.50334 | -60.65469 | 37058 ft | 558 kts | 63° |
| 2026-04-24 19:28 | -29.47801 | -60.57104 | 37062 ft | 558 kts | 63° |
| 2026-04-24 19:28 | -29.45266 | -60.48699 | 37068 ft | 557 kts | 63° |
| 2026-04-24 19:29 | -29.41443 | -60.36105 | 37078 ft | 557 kts | 63° |
| 2026-04-24 19:30 | -29.38911 | -60.27712 | 37074 ft | 557 kts | 64° |
| 2026-04-24 19:30 | -29.36389 | -60.19309 | 37074 ft | 557 kts | 64° |
| 2026-04-24 19:31 | -29.33869 | -60.10918 | 37071 ft | 557 kts | 64° |
| 2026-04-24 19:31 | -29.31351 | -60.02594 | 37061 ft | 556 kts | 64° |
| 2026-04-24 19:32 | -29.28807 | -59.94222 | 37064 ft | 556 kts | 63° |
| 2026-04-24 19:32 | -29.26255 | -59.85855 | 37051 ft | 556 kts | 64° |
| 2026-04-24 19:33 | -29.23694 | -59.77496 | 37066 ft | 556 kts | 64° |
| 2026-04-24 19:33 | -29.21106 | -59.69171 | 37066 ft | 552 kts | 59° |
| 2026-04-24 19:34 | -29.17672 | -59.61439 | 37064 ft | 543 kts | 52° |
| 2026-04-24 19:34 | -29.14082 | -59.53849 | 37054 ft | 542 kts | 52° |
| 2026-04-24 19:35 | -29.10487 | -59.46261 | 37046 ft | 542 kts | 53° |
| 2026-04-24 19:35 | -29.06905 | -59.38689 | 37065 ft | 541 kts | 53° |
| 2026-04-24 19:36 | -29.03352 | -59.31179 | 37062 ft | 540 kts | 53° |
| 2026-04-24 19:36 | -28.99769 | -59.23641 | 37066 ft | 539 kts | 53° |
| 2026-04-24 19:37 | -28.96179 | -59.16116 | 37067 ft | 539 kts | 53° |
| 2026-04-24 19:37 | -28.92598 | -59.08598 | 37067 ft | 539 kts | 53° |
| 2026-04-24 19:38 | -28.89012 | -59.01091 | 37050 ft | 538 kts | 53° |
| 2026-04-24 19:38 | -28.85423 | -58.93604 | 37063 ft | 538 kts | 53° |
| 2026-04-24 19:39 | -28.81875 | -58.86094 | 37062 ft | 538 kts | 53° |
| 2026-04-24 19:39 | -28.78364 | -58.78553 | 37062 ft | 538 kts | 54° |
| 2026-04-24 19:40 | -28.74877 | -58.71076 | 37064 ft | 537 kts | 53° |
| 2026-04-24 19:40 | -28.71352 | -58.63572 | 37062 ft | 537 kts | 53° |
| 2026-04-24 19:41 | -28.67804 | -58.56063 | 37061 ft | 537 kts | 53° |
| 2026-04-24 19:41 | -28.64257 | -58.48586 | 37068 ft | 537 kts | 53° |
| 2026-04-24 19:42 | -28.60680 | -58.41134 | 37052 ft | 536 kts | 53° |
| 2026-04-24 19:42 | -28.57039 | -58.33748 | 37035 ft | 534 kts | 53° |
| 2026-04-24 19:43 | -28.53400 | -58.26386 | 37049 ft | 534 kts | 53° |
| 2026-04-24 19:43 | -28.49804 | -58.19063 | 37049 ft | 534 kts | 53° |
| 2026-04-24 19:44 | -28.46188 | -58.11698 | 37050 ft | 533 kts | 53° |
| 2026-04-24 19:44 | -28.42562 | -58.04342 | 37062 ft | 533 kts | 53° |
| 2026-04-24 19:45 | -28.38931 | -57.97000 | 37055 ft | 533 kts | 53° |
| 2026-04-24 19:45 | -28.35292 | -57.89676 | 37040 ft | 532 kts | 53° |
| 2026-04-24 19:46 | -28.31660 | -57.82360 | 37056 ft | 531 kts | 53° |
| 2026-04-24 19:46 | -28.28041 | -57.75055 | 37056 ft | 531 kts | 53° |
| 2026-04-24 19:47 | -28.24333 | -57.67849 | 37052 ft | 521 kts | 44° |
| 2026-04-24 19:47 | -28.22002 | -57.64792 | 37037 ft | 505 kts | 33° |
| 2026-04-24 19:47 | -28.19319 | -57.62338 | 37039 ft | 487 kts | 21° |
| 2026-04-24 19:47 | -28.16409 | -57.60515 | 37034 ft | 470 kts | 11° |
| 2026-04-24 19:48 | -28.13425 | -57.59312 | 37034 ft | 454 kts | 2° |
| 2026-04-24 19:48 | -28.10382 | -57.58663 | 36995 ft | 438 kts | 354° |
| 2026-04-24 19:48 | -28.04366 | -57.58374 | 37012 ft | 432 kts | 350° |
| 2026-04-24 19:49 | -27.92345 | -57.57874 | 37030 ft | 432 kts | 351° |
| 2026-04-24 19:50 | -27.80307 | -57.57364 | 37010 ft | 432 kts | 351° |
| 2026-04-24 19:51 | -27.71321 | -57.57004 | 37020 ft | 433 kts | 351° |
| 2026-04-24 19:52 | -27.62286 | -57.56635 | 37021 ft | 433 kts | 351° |
| 2026-04-24 19:52 | -27.56258 | -57.56376 | 37003 ft | 434 kts | 352° |
| 2026-04-24 19:53 | -27.50221 | -57.56126 | 37010 ft | 434 kts | 352° |
| 2026-04-24 19:54 | -27.41174 | -57.55759 | 37013 ft | 434 kts | 352° |
| 2026-04-24 19:54 | -27.35142 | -57.55569 | 36998 ft | 433 kts | 352° |
| 2026-04-24 19:55 | -27.31153 | -57.55467 | 37001 ft | 433 kts | 352° |
| 2026-04-24 19:55 | -27.23080 | -57.55254 | 36999 ft | 434 kts | 352° |
| 2026-04-24 19:56 | -27.17082 | -57.55074 | 37002 ft | 434 kts | 352° |
| 2026-04-24 19:56 | -27.11038 | -57.54893 | 37006 ft | 434 kts | 352° |
| 2026-04-24 19:57 | -27.04998 | -57.54727 | 37009 ft | 434 kts | 352° |
| 2026-04-24 19:57 | -27.01967 | -57.54645 | 36824 ft | 435 kts | 352° |
| 2026-04-24 19:57 | -26.98948 | -57.54563 | 36397 ft | 435 kts | 352° |
| 2026-04-24 19:57 | -26.95921 | -57.54476 | 35700 ft | 434 kts | 352° |
| 2026-04-24 19:58 | -26.93915 | -57.54419 | 35208 ft | 437 kts | 352° |
| 2026-04-24 19:58 | -26.90858 | -57.54335 | 34461 ft | 441 kts | 352° |
| 2026-04-24 19:58 | -26.86782 | -57.54219 | 33291 ft | 441 kts | 353° |
| 2026-04-24 19:58 | -26.83734 | -57.54127 | 32386 ft | 438 kts | 353° |
| 2026-04-24 19:59 | -26.80663 | -57.54070 | 31438 ft | 445 kts | 352° |
| 2026-04-24 19:59 | -26.77551 | -57.54043 | 30457 ft | 452 kts | 352° |
| 2026-04-24 19:59 | -26.75444 | -57.54035 | 29678 ft | 458 kts | 352° |
| 2026-04-24 19:59 | -26.72241 | -57.54026 | 28837 ft | 459 kts | 352° |
| 2026-04-24 20:00 | -26.69064 | -57.54002 | 28230 ft | 454 kts | 352° |
| 2026-04-24 20:00 | -26.65914 | -57.53967 | 27540 ft | 451 kts | 352° |
| 2026-04-24 20:00 | -26.62779 | -57.53925 | 26850 ft | 448 kts | 352° |
| 2026-04-24 20:00 | -26.59675 | -57.53881 | 26176 ft | 445 kts | 353° |
| 2026-04-24 20:01 | -26.56588 | -57.53838 | 25499 ft | 442 kts | 353° |
| 2026-04-24 20:01 | -26.53516 | -57.53803 | 24829 ft | 440 kts | 353° |
| 2026-04-24 20:01 | -26.50476 | -57.53772 | 24157 ft | 431 kts | 353° |
| 2026-04-24 20:01 | -26.47498 | -57.53739 | 23517 ft | 427 kts | 353° |
| 2026-04-24 20:02 | -26.44537 | -57.53711 | 22817 ft | 424 kts | 353° |
| 2026-04-24 20:02 | -26.41600 | -57.53682 | 22194 ft | 419 kts | 353° |
| 2026-04-24 20:02 | -26.38734 | -57.53654 | 21580 ft | 415 kts | 354° |
| 2026-04-24 20:02 | -26.35865 | -57.53623 | 20967 ft | 411 kts | 354° |
| 2026-04-24 20:03 | -26.33015 | -57.53593 | 20339 ft | 408 kts | 354° |
| 2026-04-24 20:03 | -26.30187 | -57.53565 | 19751 ft | 406 kts | 355° |
| 2026-04-24 20:03 | -26.27368 | -57.53538 | 19149 ft | 404 kts | 355° |
| 2026-04-24 20:03 | -26.24563 | -57.53508 | 18545 ft | 400 kts | 355° |
| 2026-04-24 20:04 | -26.21828 | -57.53472 | 17914 ft | 388 kts | 356° |
| 2026-04-24 20:04 | -26.19135 | -57.53436 | 17330 ft | 386 kts | 356° |
| 2026-04-24 20:04 | -26.16460 | -57.53405 | 16758 ft | 383 kts | 356° |
| 2026-04-24 20:04 | -26.13803 | -57.53379 | 16189 ft | 379 kts | 356° |
| 2026-04-24 20:05 | -26.11175 | -57.53357 | 15623 ft | 376 kts | 356° |
| 2026-04-24 20:05 | -26.08566 | -57.53335 | 15066 ft | 373 kts | 355° |
| 2026-04-24 20:05 | -26.06006 | -57.53550 | 14513 ft | 367 kts | 351° |
| 2026-04-24 20:05 | -26.03476 | -57.53819 | 13972 ft | 364 kts | 351° |
| 2026-04-24 20:06 | -26.00978 | -57.54082 | 13385 ft | 356 kts | 351° |
| 2026-04-24 20:06 | -25.98521 | -57.54338 | 12855 ft | 353 kts | 351° |
| 2026-04-24 20:06 | -25.96091 | -57.54589 | 12332 ft | 349 kts | 351° |
| 2026-04-24 20:06 | -25.93683 | -57.54839 | 11815 ft | 346 kts | 351° |
| 2026-04-24 20:07 | -25.92100 | -57.55004 | 11476 ft | 344 kts | 351° |
| 2026-04-24 20:07 | -25.88956 | -57.55332 | 10803 ft | 341 kts | 351° |
| 2026-04-24 20:07 | -25.86628 | -57.55573 | 10590 ft | 329 kts | 351° |
| 2026-04-24 20:07 | -25.84393 | -57.55803 | 10483 ft | 316 kts | 351° |
| 2026-04-24 20:08 | -25.82248 | -57.56025 | 10351 ft | 304 kts | 351° |
| 2026-04-24 20:08 | -25.80180 | -57.56240 | 10231 ft | 293 kts | 351° |
| 2026-04-24 20:08 | -25.78181 | -57.56444 | 10086 ft | 285 kts | 352° |
| 2026-04-24 20:08 | -25.76217 | -57.56276 | 9819 ft | 287 kts | 14° |
| 2026-04-24 20:09 | -25.74477 | -57.55156 | 9488 ft | 294 kts | 40° |
| 2026-04-24 20:09 | -25.73090 | -57.53481 | 9134 ft | 296 kts | 46° |
| 2026-04-24 20:09 | -25.71746 | -57.51758 | 8789 ft | 293 kts | 40° |
| 2026-04-24 20:09 | -25.70099 | -57.50505 | 8479 ft | 284 kts | 19° |
| 2026-04-24 20:10 | -25.68225 | -57.49909 | 8180 ft | 279 kts | 9° |
| 2026-04-24 20:10 | -25.66330 | -57.49420 | 7947 ft | 280 kts | 9° |
| 2026-04-24 20:10 | -25.64441 | -57.48935 | 7683 ft | 278 kts | 9° |
| 2026-04-24 20:10 | -25.62583 | -57.48460 | 7426 ft | 278 kts | 9° |
| 2026-04-24 20:11 | -25.60677 | -57.47971 | 7252 ft | 277 kts | 9° |
| 2026-04-24 20:11 | -25.58826 | -57.47496 | 7089 ft | 276 kts | 9° |
| 2026-04-24 20:11 | -25.56957 | -57.47018 | 6915 ft | 276 kts | 9° |
| 2026-04-24 20:11 | -25.55084 | -57.46539 | 6760 ft | 276 kts | 9° |
| 2026-04-24 20:12 | -25.53211 | -57.46060 | 6583 ft | 275 kts | 10° |
| 2026-04-24 20:12 | -25.51348 | -57.45584 | 6429 ft | 274 kts | 10° |
| 2026-04-24 20:12 | -25.49491 | -57.45109 | 6260 ft | 273 kts | 10° |
| 2026-04-24 20:12 | -25.47640 | -57.44633 | 6085 ft | 273 kts | 10° |
| 2026-04-24 20:13 | -25.45791 | -57.44156 | 5904 ft | 272 kts | 10° |
| 2026-04-24 20:13 | -25.43952 | -57.43683 | 5740 ft | 271 kts | 10° |
| 2026-04-24 20:13 | -25.42113 | -57.43214 | 5556 ft | 270 kts | 10° |
| 2026-04-24 20:13 | -25.40286 | -57.42747 | 5362 ft | 269 kts | 10° |
| 2026-04-24 20:14 | -25.38472 | -57.42283 | 5160 ft | 267 kts | 11° |
| 2026-04-24 20:14 | -25.36686 | -57.41823 | 4981 ft | 267 kts | 11° |
| 2026-04-24 20:14 | -25.34876 | -57.41363 | 4787 ft | 266 kts | 10° |
| 2026-04-24 20:14 | -25.33073 | -57.40922 | 4589 ft | 265 kts | 10° |
| 2026-04-24 20:15 | -25.31267 | -57.40486 | 4391 ft | 266 kts | 10° |
| 2026-04-24 20:15 | -25.29459 | -57.40052 | 4173 ft | 264 kts | 10° |
| 2026-04-24 20:15 | -25.27683 | -57.39625 | 3978 ft | 258 kts | 10° |
| 2026-04-24 20:15 | -25.25947 | -57.39207 | 3773 ft | 249 kts | 11° |
| 2026-04-24 20:16 | -25.24308 | -57.38810 | 3584 ft | 234 kts | 11° |
| 2026-04-24 20:16 | -25.22762 | -57.38435 | 3388 ft | 220 kts | 11° |
| 2026-04-24 20:16 | -25.21307 | -57.38081 | 3199 ft | 208 kts | 11° |
| 2026-04-24 20:16 | -25.19956 | -57.37753 | 3038 ft | 195 kts | 11° |
| 2026-04-24 20:17 | -25.18686 | -57.37446 | 2880 ft | 180 kts | 11° |
| 2026-04-24 20:17 | -25.16315 | -57.36875 | 2711 ft | 172 kts | 11° |
| 2026-04-24 20:17 | -25.15152 | -57.36595 | 2640 ft | 171 kts | 11° |
| 2026-04-24 20:18 | -25.14365 | -57.36404 | 2589 ft | 171 kts | 11° |
| 2026-04-24 20:18 | -25.12827 | -57.36033 | 2487 ft | 171 kts | 11° |
| 2026-04-24 20:18 | -25.11660 | -57.35771 | 2409 ft | 171 kts | 4° |
| 2026-04-24 20:18 | -25.10487 | -57.35855 | 2288 ft | 169 kts | 344° |
| 2026-04-24 20:19 | -25.09420 | -57.36369 | 2169 ft | 167 kts | 325° |
| 2026-04-24 20:19 | -25.08574 | -57.37240 | 2081 ft | 167 kts | 306° |
| 2026-04-24 20:19 | -25.08038 | -57.38372 | 2015 ft | 167 kts | 287° |
| 2026-04-24 20:19 | -25.07780 | -57.39615 | 2015 ft | 166 kts | 282° |
| 2026-04-24 20:20 | -25.07531 | -57.40861 | 2016 ft | 166 kts | 282° |
| 2026-04-24 20:20 | -25.07283 | -57.42091 | 2016 ft | 167 kts | 282° |
| 2026-04-24 20:20 | -25.07029 | -57.43354 | 2015 ft | 166 kts | 282° |
| 2026-04-24 20:20 | -25.06784 | -57.44579 | 2017 ft | 165 kts | 281° |
| 2026-04-24 20:21 | -25.06566 | -57.45822 | 2012 ft | 165 kts | 271° |
| 2026-04-24 20:21 | -25.06830 | -57.47032 | 2015 ft | 165 kts | 238° |
| 2026-04-24 20:21 | -25.07659 | -57.47889 | 2013 ft | 166 kts | 205° |
| 2026-04-24 20:21 | -25.08780 | -57.48229 | 2013 ft | 168 kts | 193° |
| 2026-04-24 20:22 | -25.09924 | -57.48502 | 2014 ft | 166 kts | 193° |
| 2026-04-24 20:22 | -25.11045 | -57.48772 | 2017 ft | 163 kts | 193° |
| 2026-04-24 20:22 | -25.12139 | -57.49036 | 2007 ft | 157 kts | 193° |
| 2026-04-24 20:22 | -25.13182 | -57.49289 | 2007 ft | 152 kts | 193° |
| 2026-04-24 20:23 | -25.14209 | -57.49538 | 1819 ft | 150 kts | 194° |
| 2026-04-24 20:23 | -25.15220 | -57.49784 | 1650 ft | 149 kts | 194° |
| 2026-04-24 20:23 | -25.16227 | -57.50028 | 1468 ft | 147 kts | 194° |
| 2026-04-24 20:23 | -25.17223 | -57.50270 | 1280 ft | 146 kts | 194° |
| 2026-04-24 20:24 | -25.17880 | -57.50430 | 1163 ft | 146 kts | 193° |
| 2026-04-24 20:24 | -25.19203 | -57.50751 | 927 ft | 146 kts | 194° |
| 2026-04-24 20:24 | -25.20189 | -57.50991 | 818 ft | 144 kts | 194° |
| 2026-04-24 20:24 | -25.21177 | -57.51224 | 643 ft | 144 kts | 195° |
| 2026-04-24 20:25 | -25.22146 | -57.51479 | 388 ft | 141 kts | 195° |
| 2026-04-24 20:25 | -25.23095 | -57.51699 | 271 ft | 135 kts | 194° |
| 2026-04-24 20:25 | -25.23865 | -57.51891 | 279 ft | 89 kts | 192° |
| 2026-04-24 20:25 | -25.24222 | -57.51970 | 286 ft | 16 kts | 166° |
| 2026-04-24 20:26 | -25.24266 | -57.51896 | 285 ft | 10 kts | 104° |
| 2026-04-24 20:26 | -25.24286 | -57.51808 | 284 ft | 13 kts | 103° |
| 2026-04-24 20:26 | -25.24307 | -57.51699 | 284 ft | 16 kts | 100° |
| 2026-04-24 20:26 | -25.24328 | -57.51572 | 284 ft | 18 kts | 100° |
| 2026-04-24 20:27 | -25.24334 | -57.51497 | 283 ft | 0 kts | 88° |